sensor_id;sensor_type;location;lat;lon;timestamp;P1;durP1;ratioP1;P2;durP2;ratioP2
55292;SDS011;41157;53.560;10.098;2023-12-28T00:02:16;2.37;;;1.67;;
55292;SDS011;41157;53.560;10.098;2023-12-28T00:04:43;2.87;;;1.73;;
55292;SDS011;41157;53.560;10.098;2023-12-28T00:07:10;3.57;;;1.80;;
55292;SDS011;41157;53.560;10.098;2023-12-28T00:09:38;2.30;;;1.20;;
55292;SDS011;41157;53.560;10.098;2023-12-28T00:12:07;3.07;;;1.57;;
55292;SDS011;41157;53.560;10.098;2023-12-28T00:14:34;3.87;;;1.93;;
55292;SDS011;41157;53.560;10.098;2023-12-28T00:17:01;1.60;;;1.50;;
55292;SDS011;41157;53.560;10.098;2023-12-28T00:19:28;2.77;;;1.40;;
55292;SDS011;41157;53.560;10.098;2023-12-28T00:21:55;2.07;;;1.53;;
55292;SDS011;41157;53.560;10.098;2023-12-28T00:24:22;2.53;;;1.67;;
55292;SDS011;41157;53.560;10.098;2023-12-28T00:26:49;2.37;;;2.00;;
55292;SDS011;41157;53.560;10.098;2023-12-28T00:29:17;1.83;;;1.50;;
55292;SDS011;41157;53.560;10.098;2023-12-28T00:31:44;3.50;;;1.73;;
55292;SDS011;41157;53.560;10.098;2023-12-28T00:34:11;2.27;;;1.60;;
55292;SDS011;41157;53.560;10.098;2023-12-28T00:36:38;4.27;;;1.80;;
55292;SDS011;41157;53.560;10.098;2023-12-28T00:39:05;3.93;;;1.93;;
55292;SDS011;41157;53.560;10.098;2023-12-28T00:41:32;4.60;;;1.67;;
55292;SDS011;41157;53.560;10.098;2023-12-28T00:43:59;1.70;;;1.53;;
55292;SDS011;41157;53.560;10.098;2023-12-28T00:46:28;2.87;;;1.77;;
55292;SDS011;41157;53.560;10.098;2023-12-28T00:48:55;2.17;;;1.50;;
55292;SDS011;41157;53.560;10.098;2023-12-28T00:51:22;1.87;;;1.60;;
55292;SDS011;41157;53.560;10.098;2023-12-28T00:53:49;3.03;;;1.43;;
55292;SDS011;41157;53.560;10.098;2023-12-28T00:56:16;2.23;;;1.50;;
55292;SDS011;41157;53.560;10.098;2023-12-28T00:58:45;1.57;;;1.47;;
55292;SDS011;41157;53.560;10.098;2023-12-28T01:01:12;2.43;;;1.80;;
55292;SDS011;41157;53.560;10.098;2023-12-28T01:03:42;2.97;;;1.80;;
55292;SDS011;41157;53.560;10.098;2023-12-28T01:06:09;3.23;;;1.60;;
55292;SDS011;41157;53.560;10.098;2023-12-28T01:08:36;2.37;;;1.60;;
55292;SDS011;41157;53.560;10.098;2023-12-28T01:11:03;3.17;;;1.60;;
55292;SDS011;41157;53.560;10.098;2023-12-28T01:13:30;2.77;;;1.73;;
55292;SDS011;41157;53.560;10.098;2023-12-28T01:15:57;3.93;;;2.20;;
55292;SDS011;41157;53.560;10.098;2023-12-28T01:18:24;2.23;;;1.30;;
55292;SDS011;41157;53.560;10.098;2023-12-28T01:20:52;3.43;;;1.60;;
55292;SDS011;41157;53.560;10.098;2023-12-28T01:23:19;2.07;;;1.63;;
55292;SDS011;41157;53.560;10.098;2023-12-28T01:25:46;1.90;;;1.50;;
55292;SDS011;41157;53.560;10.098;2023-12-28T01:28:13;2.27;;;1.50;;
55292;SDS011;41157;53.560;10.098;2023-12-28T01:30:40;2.87;;;1.70;;
55292;SDS011;41157;53.560;10.098;2023-12-28T01:33:09;3.70;;;1.67;;
55292;SDS011;41157;53.560;10.098;2023-12-28T01:35:36;2.67;;;1.83;;
55292;SDS011;41157;53.560;10.098;2023-12-28T01:38:04;4.23;;;2.00;;
55292;SDS011;41157;53.560;10.098;2023-12-28T01:40:31;4.53;;;1.90;;
55292;SDS011;41157;53.560;10.098;2023-12-28T01:42:58;2.70;;;1.70;;
55292;SDS011;41157;53.560;10.098;2023-12-28T01:45:25;4.60;;;1.80;;
55292;SDS011;41157;53.560;10.098;2023-12-28T01:47:53;3.50;;;1.83;;
55292;SDS011;41157;53.560;10.098;2023-12-28T01:50:20;3.37;;;1.70;;
55292;SDS011;41157;53.560;10.098;2023-12-28T01:52:48;3.17;;;1.90;;
55292;SDS011;41157;53.560;10.098;2023-12-28T01:55:17;3.80;;;1.60;;
55292;SDS011;41157;53.560;10.098;2023-12-28T01:57:46;2.00;;;1.80;;
55292;SDS011;41157;53.560;10.098;2023-12-28T02:00:13;3.03;;;1.83;;
55292;SDS011;41157;53.560;10.098;2023-12-28T02:02:40;5.57;;;1.70;;
55292;SDS011;41157;53.560;10.098;2023-12-28T02:05:07;3.07;;;1.90;;
55292;SDS011;41157;53.560;10.098;2023-12-28T02:07:34;2.23;;;1.87;;
55292;SDS011;41157;53.560;10.098;2023-12-28T02:10:03;3.27;;;1.60;;
55292;SDS011;41157;53.560;10.098;2023-12-28T02:12:31;4.93;;;1.73;;
55292;SDS011;41157;53.560;10.098;2023-12-28T02:14:59;2.90;;;2.00;;
55292;SDS011;41157;53.560;10.098;2023-12-28T02:17:28;1.87;;;1.70;;
55292;SDS011;41157;53.560;10.098;2023-12-28T02:19:55;2.57;;;1.80;;
55292;SDS011;41157;53.560;10.098;2023-12-28T02:22:23;3.93;;;1.87;;
55292;SDS011;41157;53.560;10.098;2023-12-28T02:27:40;3.03;;;1.50;;
55292;SDS011;41157;53.560;10.098;2023-12-28T02:30:08;3.27;;;1.97;;
55292;SDS011;41157;53.560;10.098;2023-12-28T02:32:38;5.60;;;2.10;;
55292;SDS011;41157;53.560;10.098;2023-12-28T02:35:09;2.20;;;1.83;;
55292;SDS011;41157;53.560;10.098;2023-12-28T02:37:36;5.17;;;1.80;;
55292;SDS011;41157;53.560;10.098;2023-12-28T02:40:04;2.10;;;1.80;;
55292;SDS011;41157;53.560;10.098;2023-12-28T02:42:32;4.50;;;1.77;;
55292;SDS011;41157;53.560;10.098;2023-12-28T02:45:00;2.73;;;1.93;;
55292;SDS011;41157;53.560;10.098;2023-12-28T02:47:27;4.13;;;2.17;;
55292;SDS011;41157;53.560;10.098;2023-12-28T02:49:54;3.27;;;2.00;;
55292;SDS011;41157;53.560;10.098;2023-12-28T02:52:24;4.03;;;1.93;;
55292;SDS011;41157;53.560;10.098;2023-12-28T02:54:51;1.80;;;1.70;;
55292;SDS011;41157;53.560;10.098;2023-12-28T02:57:18;3.07;;;2.20;;
55292;SDS011;41157;53.560;10.098;2023-12-28T02:59:45;2.47;;;2.10;;
55292;SDS011;41157;53.560;10.098;2023-12-28T03:02:13;3.20;;;2.00;;
55292;SDS011;41157;53.560;10.098;2023-12-28T03:07:44;6.27;;;2.47;;
55292;SDS011;41157;53.560;10.098;2023-12-28T03:10:11;4.03;;;2.30;;
55292;SDS011;41157;53.560;10.098;2023-12-28T03:12:38;2.90;;;2.10;;
55292;SDS011;41157;53.560;10.098;2023-12-28T03:15:05;3.00;;;2.00;;
55292;SDS011;41157;53.560;10.098;2023-12-28T03:17:34;6.53;;;2.10;;
55292;SDS011;41157;53.560;10.098;2023-12-28T03:20:01;3.67;;;1.80;;
55292;SDS011;41157;53.560;10.098;2023-12-28T03:22:28;3.80;;;1.90;;
55292;SDS011;41157;53.560;10.098;2023-12-28T03:24:55;3.97;;;1.97;;
55292;SDS011;41157;53.560;10.098;2023-12-28T03:27:22;5.83;;;2.47;;
55292;SDS011;41157;53.560;10.098;2023-12-28T03:29:49;2.33;;;1.90;;
55292;SDS011;41157;53.560;10.098;2023-12-28T03:32:16;4.50;;;1.87;;
55292;SDS011;41157;53.560;10.098;2023-12-28T03:34:45;6.43;;;2.33;;
55292;SDS011;41157;53.560;10.098;2023-12-28T03:37:11;5.03;;;1.90;;
55292;SDS011;41157;53.560;10.098;2023-12-28T03:39:38;2.00;;;1.90;;
55292;SDS011;41157;53.560;10.098;2023-12-28T03:42:05;2.73;;;1.90;;
55292;SDS011;41157;53.560;10.098;2023-12-28T03:44:32;4.23;;;2.60;;
55292;SDS011;41157;53.560;10.098;2023-12-28T03:46:59;3.57;;;1.97;;
55292;SDS011;41157;53.560;10.098;2023-12-28T03:49:26;2.60;;;2.00;;
55292;SDS011;41157;53.560;10.098;2023-12-28T03:51:55;6.93;;;2.33;;
55292;SDS011;41157;53.560;10.098;2023-12-28T03:54:21;4.17;;;2.27;;
55292;SDS011;41157;53.560;10.098;2023-12-28T03:56:48;2.50;;;2.00;;
55292;SDS011;41157;53.560;10.098;2023-12-28T03:59:15;4.53;;;2.20;;
55292;SDS011;41157;53.560;10.098;2023-12-28T04:01:43;2.83;;;2.27;;
55292;SDS011;41157;53.560;10.098;2023-12-28T04:04:10;4.53;;;2.00;;
55292;SDS011;41157;53.560;10.098;2023-12-28T04:06:37;2.40;;;2.07;;
55292;SDS011;41157;53.560;10.098;2023-12-28T04:09:05;3.97;;;2.30;;
55292;SDS011;41157;53.560;10.098;2023-12-28T04:11:32;3.53;;;2.00;;
55292;SDS011;41157;53.560;10.098;2023-12-28T04:13:59;5.67;;;2.33;;
55292;SDS011;41157;53.560;10.098;2023-12-28T04:16:28;3.47;;;1.80;;
55292;SDS011;41157;53.560;10.098;2023-12-28T04:18:56;4.00;;;2.30;;
55292;SDS011;41157;53.560;10.098;2023-12-28T04:21:23;2.27;;;1.83;;
55292;SDS011;41157;53.560;10.098;2023-12-28T04:23:50;4.00;;;2.00;;
55292;SDS011;41157;53.560;10.098;2023-12-28T04:26:19;4.70;;;2.03;;
55292;SDS011;41157;53.560;10.098;2023-12-28T04:28:46;5.20;;;2.60;;
55292;SDS011;41157;53.560;10.098;2023-12-28T04:31:13;4.53;;;2.20;;
55292;SDS011;41157;53.560;10.098;2023-12-28T04:33:40;6.53;;;2.33;;
55292;SDS011;41157;53.560;10.098;2023-12-28T04:36:07;3.60;;;2.20;;
55292;SDS011;41157;53.560;10.098;2023-12-28T04:38:34;4.03;;;2.37;;
55292;SDS011;41157;53.560;10.098;2023-12-28T04:41:01;4.27;;;2.13;;
55292;SDS011;41157;53.560;10.098;2023-12-28T04:43:30;6.83;;;2.63;;
55292;SDS011;41157;53.560;10.098;2023-12-28T04:45:57;5.33;;;2.00;;
55292;SDS011;41157;53.560;10.098;2023-12-28T04:48:24;3.10;;;2.10;;
55292;SDS011;41157;53.560;10.098;2023-12-28T04:50:53;3.83;;;2.13;;
55292;SDS011;41157;53.560;10.098;2023-12-28T04:53:20;2.10;;;1.87;;
55292;SDS011;41157;53.560;10.098;2023-12-28T04:55:47;3.90;;;2.20;;
55292;SDS011;41157;53.560;10.098;2023-12-28T04:58:14;4.13;;;2.30;;
55292;SDS011;41157;53.560;10.098;2023-12-28T05:00:43;4.03;;;2.10;;
55292;SDS011;41157;53.560;10.098;2023-12-28T05:03:10;5.00;;;2.27;;
55292;SDS011;41157;53.560;10.098;2023-12-28T05:05:37;9.17;;;2.27;;
55292;SDS011;41157;53.560;10.098;2023-12-28T05:08:04;3.37;;;2.20;;
55292;SDS011;41157;53.560;10.098;2023-12-28T05:10:31;5.67;;;2.33;;
55292;SDS011;41157;53.560;10.098;2023-12-28T05:12:58;6.20;;;2.20;;
55292;SDS011;41157;53.560;10.098;2023-12-28T05:15:25;3.43;;;2.13;;
55292;SDS011;41157;53.560;10.098;2023-12-28T05:17:53;3.07;;;2.23;;
55292;SDS011;41157;53.560;10.098;2023-12-28T05:20:20;3.93;;;2.10;;
55292;SDS011;41157;53.560;10.098;2023-12-28T05:22:47;4.07;;;2.30;;
55292;SDS011;41157;53.560;10.098;2023-12-28T05:25:15;3.77;;;1.93;;
55292;SDS011;41157;53.560;10.098;2023-12-28T05:27:42;4.93;;;2.37;;
55292;SDS011;41157;53.560;10.098;2023-12-28T05:30:09;4.27;;;2.40;;
55292;SDS011;41157;53.560;10.098;2023-12-28T05:32:36;4.20;;;2.40;;
55292;SDS011;41157;53.560;10.098;2023-12-28T05:35:05;5.60;;;2.73;;
55292;SDS011;41157;53.560;10.098;2023-12-28T05:37:32;4.87;;;2.33;;
55292;SDS011;41157;53.560;10.098;2023-12-28T05:39:59;9.50;;;2.57;;
55292;SDS011;41157;53.560;10.098;2023-12-28T05:42:26;4.90;;;2.43;;
55292;SDS011;41157;53.560;10.098;2023-12-28T05:44:53;3.13;;;2.10;;
55292;SDS011;41157;53.560;10.098;2023-12-28T05:47:20;6.73;;;2.73;;
55292;SDS011;41157;53.560;10.098;2023-12-28T05:49:48;5.97;;;2.17;;
55292;SDS011;41157;53.560;10.098;2023-12-28T05:52:16;3.93;;;2.23;;
55292;SDS011;41157;53.560;10.098;2023-12-28T05:54:44;3.23;;;2.27;;
55292;SDS011;41157;53.560;10.098;2023-12-28T05:57:12;5.17;;;2.30;;
55292;SDS011;41157;53.560;10.098;2023-12-28T05:59:39;4.73;;;1.90;;
55292;SDS011;41157;53.560;10.098;2023-12-28T06:02:07;8.17;;;2.27;;
55292;SDS011;41157;53.560;10.098;2023-12-28T06:04:34;3.57;;;2.13;;
55292;SDS011;41157;53.560;10.098;2023-12-28T06:07:01;5.13;;;2.23;;
55292;SDS011;41157;53.560;10.098;2023-12-28T06:09:30;2.80;;;1.93;;
55292;SDS011;41157;53.560;10.098;2023-12-28T06:11:57;2.77;;;2.00;;
55292;SDS011;41157;53.560;10.098;2023-12-28T06:14:24;4.43;;;2.00;;
55292;SDS011;41157;53.560;10.098;2023-12-28T06:16:51;2.97;;;1.97;;
55292;SDS011;41157;53.560;10.098;2023-12-28T06:19:18;4.57;;;2.13;;
55292;SDS011;41157;53.560;10.098;2023-12-28T06:21:45;6.77;;;2.60;;
55292;SDS011;41157;53.560;10.098;2023-12-28T06:24:12;3.63;;;2.00;;
55292;SDS011;41157;53.560;10.098;2023-12-28T06:26:41;6.30;;;2.30;;
55292;SDS011;41157;53.560;10.098;2023-12-28T06:29:08;3.17;;;2.17;;
55292;SDS011;41157;53.560;10.098;2023-12-28T06:31:35;5.00;;;2.20;;
55292;SDS011;41157;53.560;10.098;2023-12-28T06:34:03;5.07;;;2.17;;
55292;SDS011;41157;53.560;10.098;2023-12-28T06:36:30;4.73;;;2.10;;
55292;SDS011;41157;53.560;10.098;2023-12-28T06:38:57;5.27;;;2.10;;
55292;SDS011;41157;53.560;10.098;2023-12-28T06:41:24;8.13;;;2.20;;
55292;SDS011;41157;53.560;10.098;2023-12-28T06:43:52;7.97;;;2.50;;
55292;SDS011;41157;53.560;10.098;2023-12-28T06:46:19;4.73;;;1.90;;
55292;SDS011;41157;53.560;10.098;2023-12-28T06:48:46;3.80;;;2.23;;
55292;SDS011;41157;53.560;10.098;2023-12-28T06:51:16;3.67;;;2.10;;
55292;SDS011;41157;53.560;10.098;2023-12-28T06:53:44;4.13;;;2.00;;
55292;SDS011;41157;53.560;10.098;2023-12-28T06:56:11;4.87;;;2.10;;
55292;SDS011;41157;53.560;10.098;2023-12-28T06:58:38;4.93;;;2.40;;
55292;SDS011;41157;53.560;10.098;2023-12-28T07:01:06;6.90;;;2.30;;
55292;SDS011;41157;53.560;10.098;2023-12-28T07:03:33;6.37;;;2.03;;
55292;SDS011;41157;53.560;10.098;2023-12-28T07:06:00;8.67;;;2.50;;
55292;SDS011;41157;53.560;10.098;2023-12-28T07:08:28;3.87;;;2.10;;
55292;SDS011;41157;53.560;10.098;2023-12-28T07:10:55;9.23;;;2.60;;
55292;SDS011;41157;53.560;10.098;2023-12-28T07:13:22;3.63;;;2.20;;
55292;SDS011;41157;53.560;10.098;2023-12-28T07:15:49;4.83;;;2.30;;
55292;SDS011;41157;53.560;10.098;2023-12-28T07:18:17;6.23;;;2.43;;
55292;SDS011;41157;53.560;10.098;2023-12-28T07:20:44;7.47;;;1.77;;
55292;SDS011;41157;53.560;10.098;2023-12-28T07:23:11;4.13;;;2.40;;
55292;SDS011;41157;53.560;10.098;2023-12-28T07:25:38;5.20;;;2.10;;
55292;SDS011;41157;53.560;10.098;2023-12-28T07:28:05;3.83;;;1.90;;
55292;SDS011;41157;53.560;10.098;2023-12-28T07:30:32;5.23;;;2.13;;
55292;SDS011;41157;53.560;10.098;2023-12-28T07:32:59;6.13;;;1.97;;
55292;SDS011;41157;53.560;10.098;2023-12-28T07:35:27;4.67;;;2.20;;
55292;SDS011;41157;53.560;10.098;2023-12-28T07:37:54;2.87;;;1.90;;
55292;SDS011;41157;53.560;10.098;2023-12-28T07:40:21;7.83;;;2.03;;
55292;SDS011;41157;53.560;10.098;2023-12-28T07:42:48;6.63;;;1.97;;
55292;SDS011;41157;53.560;10.098;2023-12-28T07:45:15;12.40;;;2.40;;
55292;SDS011;41157;53.560;10.098;2023-12-28T07:47:48;3.67;;;1.60;;
55292;SDS011;41157;53.560;10.098;2023-12-28T07:50:15;8.33;;;2.03;;
55292;SDS011;41157;53.560;10.098;2023-12-28T07:52:44;7.43;;;2.13;;
55292;SDS011;41157;53.560;10.098;2023-12-28T07:55:12;6.07;;;2.60;;
55292;SDS011;41157;53.560;10.098;2023-12-28T07:57:39;5.67;;;2.83;;
55292;SDS011;41157;53.560;10.098;2023-12-28T08:00:06;3.77;;;2.10;;
55292;SDS011;41157;53.560;10.098;2023-12-28T08:02:34;5.80;;;1.83;;
55292;SDS011;41157;53.560;10.098;2023-12-28T08:05:01;5.13;;;1.93;;
55292;SDS011;41157;53.560;10.098;2023-12-28T08:07:28;5.43;;;2.00;;
55292;SDS011;41157;53.560;10.098;2023-12-28T08:09:56;7.83;;;1.83;;
55292;SDS011;41157;53.560;10.098;2023-12-28T08:12:23;5.57;;;2.30;;
55292;SDS011;41157;53.560;10.098;2023-12-28T08:14:52;8.50;;;2.03;;
55292;SDS011;41157;53.560;10.098;2023-12-28T08:17:19;4.53;;;1.90;;
55292;SDS011;41157;53.560;10.098;2023-12-28T08:19:46;8.17;;;2.23;;
55292;SDS011;41157;53.560;10.098;2023-12-28T08:22:13;4.83;;;2.07;;
55292;SDS011;41157;53.560;10.098;2023-12-28T08:24:40;7.23;;;2.13;;
55292;SDS011;41157;53.560;10.098;2023-12-28T08:27:08;8.33;;;2.03;;
55292;SDS011;41157;53.560;10.098;2023-12-28T08:29:35;4.87;;;2.10;;
55292;SDS011;41157;53.560;10.098;2023-12-28T08:32:03;8.50;;;2.03;;
55292;SDS011;41157;53.560;10.098;2023-12-28T08:34:30;10.43;;;2.37;;
55292;SDS011;41157;53.560;10.098;2023-12-28T08:36:57;8.23;;;2.13;;
55292;SDS011;41157;53.560;10.098;2023-12-28T08:39:24;4.03;;;2.07;;
55292;SDS011;41157;53.560;10.098;2023-12-28T08:41:51;6.43;;;1.67;;
55292;SDS011;41157;53.560;10.098;2023-12-28T08:44:19;6.47;;;2.10;;
55292;SDS011;41157;53.560;10.098;2023-12-28T08:46:47;8.67;;;2.30;;
55292;SDS011;41157;53.560;10.098;2023-12-28T08:49:14;9.90;;;2.30;;
55292;SDS011;41157;53.560;10.098;2023-12-28T08:51:41;7.17;;;2.60;;
55292;SDS011;41157;53.560;10.098;2023-12-28T08:54:08;8.70;;;2.13;;
55292;SDS011;41157;53.560;10.098;2023-12-28T08:56:35;12.20;;;2.00;;
55292;SDS011;41157;53.560;10.098;2023-12-28T08:59:02;6.23;;;1.97;;
55292;SDS011;41157;53.560;10.098;2023-12-28T09:01:31;9.60;;;2.40;;
55292;SDS011;41157;53.560;10.098;2023-12-28T09:03:58;5.17;;;1.90;;
55292;SDS011;41157;53.560;10.098;2023-12-28T09:06:26;4.30;;;2.00;;
55292;SDS011;41157;53.560;10.098;2023-12-28T09:08:55;5.37;;;2.40;;
55292;SDS011;41157;53.560;10.098;2023-12-28T09:11:23;5.43;;;2.10;;
55292;SDS011;41157;53.560;10.098;2023-12-28T09:13:50;5.13;;;2.27;;
55292;SDS011;41157;53.560;10.098;2023-12-28T09:16:17;8.47;;;1.70;;
55292;SDS011;41157;53.560;10.098;2023-12-28T09:18:56;6.40;;;2.10;;
55292;SDS011;41157;53.560;10.098;2023-12-28T09:21:23;4.30;;;1.77;;
55292;SDS011;41157;53.560;10.098;2023-12-28T09:23:51;8.90;;;2.10;;
55292;SDS011;41157;53.560;10.098;2023-12-28T09:26:18;3.10;;;1.70;;
55292;SDS011;41157;53.560;10.098;2023-12-28T09:28:45;5.87;;;1.90;;
55292;SDS011;41157;53.560;10.098;2023-12-28T09:31:12;8.73;;;1.97;;
55292;SDS011;41157;53.560;10.098;2023-12-28T09:33:39;9.23;;;2.03;;
55292;SDS011;41157;53.560;10.098;2023-12-28T09:36:08;8.23;;;2.10;;
55292;SDS011;41157;53.560;10.098;2023-12-28T09:38:37;10.10;;;2.00;;
55292;SDS011;41157;53.560;10.098;2023-12-28T09:41:09;4.80;;;2.00;;
55292;SDS011;41157;53.560;10.098;2023-12-28T09:43:37;4.83;;;2.07;;
55292;SDS011;41157;53.560;10.098;2023-12-28T09:46:06;7.07;;;2.03;;
55292;SDS011;41157;53.560;10.098;2023-12-28T09:48:34;7.67;;;1.90;;
55292;SDS011;41157;53.560;10.098;2023-12-28T09:51:03;7.00;;;2.20;;
55292;SDS011;41157;53.560;10.098;2023-12-28T09:53:32;11.27;;;2.50;;
55292;SDS011;41157;53.560;10.098;2023-12-28T09:55:59;7.40;;;2.50;;
55292;SDS011;41157;53.560;10.098;2023-12-28T09:58:26;9.60;;;2.00;;
55292;SDS011;41157;53.560;10.098;2023-12-28T10:00:57;6.53;;;2.27;;
55292;SDS011;41157;53.560;10.098;2023-12-28T10:03:26;4.47;;;1.70;;
55292;SDS011;41157;53.560;10.098;2023-12-28T10:06:05;7.17;;;2.07;;
55292;SDS011;41157;53.560;10.098;2023-12-28T10:08:34;7.83;;;2.07;;
55292;SDS011;41157;53.560;10.098;2023-12-28T10:11:02;8.50;;;2.03;;
55292;SDS011;41157;53.560;10.098;2023-12-28T10:13:33;5.13;;;2.10;;
55292;SDS011;41157;53.560;10.098;2023-12-28T10:16:00;4.17;;;1.83;;
55292;SDS011;41157;53.560;10.098;2023-12-28T10:18:28;8.73;;;2.03;;
55292;SDS011;41157;53.560;10.098;2023-12-28T10:20:55;7.47;;;2.00;;
55292;SDS011;41157;53.560;10.098;2023-12-28T10:23:22;6.43;;;1.93;;
55292;SDS011;41157;53.560;10.098;2023-12-28T10:25:55;9.17;;;2.70;;
55292;SDS011;41157;53.560;10.098;2023-12-28T10:28:23;8.13;;;1.77;;
55292;SDS011;41157;53.560;10.098;2023-12-28T10:30:53;8.27;;;2.03;;
55292;SDS011;41157;53.560;10.098;2023-12-28T10:33:21;9.40;;;2.30;;
55292;SDS011;41157;53.560;10.098;2023-12-28T10:35:48;8.10;;;2.10;;
55292;SDS011;41157;53.560;10.098;2023-12-28T10:38:16;9.17;;;2.10;;
55292;SDS011;41157;53.560;10.098;2023-12-28T10:40:44;4.73;;;1.77;;
55292;SDS011;41157;53.560;10.098;2023-12-28T10:43:14;8.30;;;2.07;;
55292;SDS011;41157;53.560;10.098;2023-12-28T10:45:42;8.43;;;2.80;;
55292;SDS011;41157;53.560;10.098;2023-12-28T10:48:12;5.53;;;2.47;;
55292;SDS011;41157;53.560;10.098;2023-12-28T10:50:40;7.23;;;2.37;;
55292;SDS011;41157;53.560;10.098;2023-12-28T10:55:53;7.27;;;2.17;;
55292;SDS011;41157;53.560;10.098;2023-12-28T10:58:29;11.50;;;2.40;;
55292;SDS011;41157;53.560;10.098;2023-12-28T11:01:02;7.80;;;2.23;;
55292;SDS011;41157;53.560;10.098;2023-12-28T11:03:30;11.10;;;2.67;;
55292;SDS011;41157;53.560;10.098;2023-12-28T11:05:57;7.50;;;1.97;;
55292;SDS011;41157;53.560;10.098;2023-12-28T11:08:23;10.43;;;2.60;;
55292;SDS011;41157;53.560;10.098;2023-12-28T11:10:50;11.50;;;2.03;;
55292;SDS011;41157;53.560;10.098;2023-12-28T11:13:18;5.63;;;2.10;;
55292;SDS011;41157;53.560;10.098;2023-12-28T11:15:48;8.10;;;2.30;;
55292;SDS011;41157;53.560;10.098;2023-12-28T11:18:16;9.27;;;2.13;;
55292;SDS011;41157;53.560;10.098;2023-12-28T11:20:46;5.17;;;1.97;;
55292;SDS011;41157;53.560;10.098;2023-12-28T11:23:13;7.07;;;2.20;;
55292;SDS011;41157;53.560;10.098;2023-12-28T11:25:40;8.87;;;2.60;;
55292;SDS011;41157;53.560;10.098;2023-12-28T11:28:10;10.70;;;2.23;;
55292;SDS011;41157;53.560;10.098;2023-12-28T11:30:37;9.20;;;2.40;;
55292;SDS011;41157;53.560;10.098;2023-12-28T11:33:06;10.83;;;2.00;;
55292;SDS011;41157;53.560;10.098;2023-12-28T11:35:34;9.37;;;2.00;;
55292;SDS011;41157;53.560;10.098;2023-12-28T11:38:02;8.93;;;2.27;;
55292;SDS011;41157;53.560;10.098;2023-12-28T11:40:31;6.73;;;2.27;;
55292;SDS011;41157;53.560;10.098;2023-12-28T11:43:06;9.27;;;2.47;;
55292;SDS011;41157;53.560;10.098;2023-12-28T11:45:46;7.07;;;2.17;;
55292;SDS011;41157;53.560;10.098;2023-12-28T11:48:23;13.07;;;2.47;;
55292;SDS011;41157;53.560;10.098;2023-12-28T11:50:51;14.83;;;2.80;;
55292;SDS011;41157;53.560;10.098;2023-12-28T11:53:18;3.13;;;1.70;;
55292;SDS011;41157;53.560;10.098;2023-12-28T11:55:46;9.57;;;2.70;;
55292;SDS011;41157;53.560;10.098;2023-12-28T11:58:13;8.77;;;2.40;;
55292;SDS011;41157;53.560;10.098;2023-12-28T12:00:40;15.47;;;2.90;;
55292;SDS011;41157;53.560;10.098;2023-12-28T12:03:09;8.53;;;2.63;;
55292;SDS011;41157;53.560;10.098;2023-12-28T12:05:38;10.47;;;2.13;;
55292;SDS011;41157;53.560;10.098;2023-12-28T12:08:05;10.47;;;3.00;;
55292;SDS011;41157;53.560;10.098;2023-12-28T12:10:33;8.93;;;2.27;;
55292;SDS011;41157;53.560;10.098;2023-12-28T12:13:00;9.93;;;2.47;;
55292;SDS011;41157;53.560;10.098;2023-12-28T12:15:29;8.17;;;2.10;;
55292;SDS011;41157;53.560;10.098;2023-12-28T12:17:56;8.40;;;2.10;;
55292;SDS011;41157;53.560;10.098;2023-12-28T12:20:23;8.23;;;2.43;;
55292;SDS011;41157;53.560;10.098;2023-12-28T12:22:52;10.27;;;2.70;;
55292;SDS011;41157;53.560;10.098;2023-12-28T12:25:19;13.73;;;2.37;;
55292;SDS011;41157;53.560;10.098;2023-12-28T12:27:46;9.50;;;2.57;;
55292;SDS011;41157;53.560;10.098;2023-12-28T12:30:13;9.70;;;2.40;;
55292;SDS011;41157;53.560;10.098;2023-12-28T12:32:40;30.70;;;4.33;;
55292;SDS011;41157;53.560;10.098;2023-12-28T12:35:09;11.37;;;2.10;;
55292;SDS011;41157;53.560;10.098;2023-12-28T12:37:36;15.10;;;2.63;;
55292;SDS011;41157;53.560;10.098;2023-12-28T12:40:05;10.17;;;2.80;;
55292;SDS011;41157;53.560;10.098;2023-12-28T12:42:33;9.20;;;2.33;;
55292;SDS011;41157;53.560;10.098;2023-12-28T12:45:00;15.83;;;2.93;;
55292;SDS011;41157;53.560;10.098;2023-12-28T12:47:31;13.07;;;3.20;;
55292;SDS011;41157;53.560;10.098;2023-12-28T12:49:59;11.97;;;2.77;;
55292;SDS011;41157;53.560;10.098;2023-12-28T12:52:26;13.13;;;2.87;;
55292;SDS011;41157;53.560;10.098;2023-12-28T12:54:54;9.17;;;2.60;;
55292;SDS011;41157;53.560;10.098;2023-12-28T12:57:22;10.00;;;2.87;;
55292;SDS011;41157;53.560;10.098;2023-12-28T12:59:49;12.60;;;2.90;;
55292;SDS011;41157;53.560;10.098;2023-12-28T13:02:16;14.47;;;2.37;;
55292;SDS011;41157;53.560;10.098;2023-12-28T13:04:43;12.30;;;2.83;;
55292;SDS011;41157;53.560;10.098;2023-12-28T13:07:10;11.83;;;2.40;;
55292;SDS011;41157;53.560;10.098;2023-12-28T13:09:37;10.80;;;2.13;;
55292;SDS011;41157;53.560;10.098;2023-12-28T13:12:05;4.90;;;1.90;;
55292;SDS011;41157;53.560;10.098;2023-12-28T13:14:33;10.10;;;2.47;;
55292;SDS011;41157;53.560;10.098;2023-12-28T13:17:00;6.70;;;2.17;;
55292;SDS011;41157;53.560;10.098;2023-12-28T13:19:27;7.47;;;2.23;;
55292;SDS011;41157;53.560;10.098;2023-12-28T13:21:54;12.43;;;2.30;;
55292;SDS011;41157;53.560;10.098;2023-12-28T13:24:21;12.27;;;2.80;;
55292;SDS011;41157;53.560;10.098;2023-12-28T13:26:48;9.43;;;2.47;;
55292;SDS011;41157;53.560;10.098;2023-12-28T13:29:15;15.33;;;3.00;;
55292;SDS011;41157;53.560;10.098;2023-12-28T13:31:44;10.03;;;2.20;;
55292;SDS011;41157;53.560;10.098;2023-12-28T13:34:17;9.50;;;2.70;;
55292;SDS011;41157;53.560;10.098;2023-12-28T13:36:44;7.43;;;2.37;;
55292;SDS011;41157;53.560;10.098;2023-12-28T13:39:11;14.90;;;2.73;;
55292;SDS011;41157;53.560;10.098;2023-12-28T13:41:39;9.40;;;2.43;;
55292;SDS011;41157;53.560;10.098;2023-12-28T13:44:06;9.07;;;2.20;;
55292;SDS011;41157;53.560;10.098;2023-12-28T13:46:37;10.27;;;3.13;;
55292;SDS011;41157;53.560;10.098;2023-12-28T13:49:05;8.73;;;2.37;;
55292;SDS011;41157;53.560;10.098;2023-12-28T13:51:32;8.00;;;2.33;;
55292;SDS011;41157;53.560;10.098;2023-12-28T13:53:59;8.93;;;2.47;;
55292;SDS011;41157;53.560;10.098;2023-12-28T13:56:26;14.57;;;2.77;;
55292;SDS011;41157;53.560;10.098;2023-12-28T13:58:53;14.10;;;3.03;;
55292;SDS011;41157;53.560;10.098;2023-12-28T14:01:20;13.77;;;2.70;;
55292;SDS011;41157;53.560;10.098;2023-12-28T14:03:47;6.57;;;2.53;;
55292;SDS011;41157;53.560;10.098;2023-12-28T14:06:17;11.47;;;2.23;;
55292;SDS011;41157;53.560;10.098;2023-12-28T14:08:45;9.33;;;2.60;;
55292;SDS011;41157;53.560;10.098;2023-12-28T14:11:12;8.63;;;2.70;;
55292;SDS011;41157;53.560;10.098;2023-12-28T14:13:39;12.20;;;2.40;;
55292;SDS011;41157;53.560;10.098;2023-12-28T14:16:06;6.77;;;2.03;;
55292;SDS011;41157;53.560;10.098;2023-12-28T14:18:34;11.90;;;2.90;;
55292;SDS011;41157;53.560;10.098;2023-12-28T14:21:01;11.83;;;2.60;;
55292;SDS011;41157;53.560;10.098;2023-12-28T14:23:30;10.97;;;2.07;;
55292;SDS011;41157;53.560;10.098;2023-12-28T14:25:57;9.43;;;2.77;;
55292;SDS011;41157;53.560;10.098;2023-12-28T14:28:24;12.53;;;3.10;;
55292;SDS011;41157;53.560;10.098;2023-12-28T14:30:54;10.83;;;3.23;;
55292;SDS011;41157;53.560;10.098;2023-12-28T14:33:22;10.33;;;2.37;;
55292;SDS011;41157;53.560;10.098;2023-12-28T14:35:49;12.23;;;2.60;;
55292;SDS011;41157;53.560;10.098;2023-12-28T14:38:17;9.60;;;2.73;;
55292;SDS011;41157;53.560;10.098;2023-12-28T14:40:46;12.93;;;2.43;;
55292;SDS011;41157;53.560;10.098;2023-12-28T14:43:15;11.23;;;2.50;;
55292;SDS011;41157;53.560;10.098;2023-12-28T14:45:50;8.57;;;2.20;;